Time;durP1;ratioP1;P1;durP2;ratioP2;P2;SDS_P1;SDS_P2;PMS_P1;PMS_P2;Temp;Humidity;BMP_temperature;BMP_pressure;BME280_temperature;BME280_humidity;BME280_pressure;Samples;Min_cycle;Max_cycle;Signal;HPM_P1;HPM_P2
2022/01/16 00:04:06;;;;;;;;;;;;;;;-1.74;80.59;97106.81;5054437;28;20045;-74
2022/01/16 00:06:33;;;;;;;;;;;;;;;-1.74;80.74;97124.81;5052650;28;20417;-75
2022/01/16 00:08:59;;;;;;;;;;;;;;;-1.74;81.08;97122.22;5045597;28;19958;-74
2022/01/16 00:11:25;;;;;;;;;;;;;;;-1.75;80.44;97134.28;5052563;28;19973;-75
2022/01/16 00:13:51;;;;;;;;;;;;;;;-1.77;80.78;97141.31;5062406;28;19951;-74
2022/01/16 00:16:17;;;;;;;;;;;;;;;-1.77;80.84;97128.44;5038764;28;19955;-75
2022/01/16 00:18:50;;;;;;;;;;;;;;;-1.77;81.38;97135.34;5064794;28;19960;-76
2022/01/16 00:21:23;;;;;;;;;;;;;;;-1.77;81.31;97128.44;5054992;28;19961;-74
2022/01/16 00:23:49;;;;;;;;;;;;;;;-1.74;81.68;97120.50;5041367;28;20436;-75
2022/01/16 00:26:16;;;;;;;;;;;;;;;-1.72;81.78;97110.91;5047734;28;20338;-74
2022/01/16 00:28:42;;;;;;;;;;;;;;;-1.72;82.18;97110.91;5062060;28;19966;-74
2022/01/16 00:31:08;;;;;;;;;;;;;;;-1.72;82.52;97118.63;5052021;28;19975;-75
2022/01/16 00:33:38;;;;;;;;;;;;;;;-1.73;83.07;97098.97;5053862;28;19952;-74
2022/01/16 00:36:05;;;;;;;;;;;;;;;-1.74;83.30;97093.94;5041795;28;19962;-74
2022/01/16 00:38:31;;;;;;;;;;;;;;;-1.78;83.57;97102.88;5062269;28;19958;-74
2022/01/16 00:40:57;;;;;;;;;;;;;;;-1.82;84.17;97114.34;5059326;28;19959;-75
2022/01/16 00:43:23;;;;;;;;;;;;;;;-1.81;84.36;97132.19;5040941;28;20449;-74
2022/01/16 00:45:49;;;;;;;;;;;;;;;-1.79;84.78;97126.94;5060294;28;20008;-74
2022/01/16 00:48:15;;;;;;;;;;;;;;;-1.78;84.58;97139.69;5053194;28;20054;-75
2022/01/16 00:50:41;;;;;;;;;;;;;;;-1.77;84.92;97132.78;5057824;28;19985;-74
2022/01/16 00:53:08;;;;;;;;;;;;;;;-1.75;85.11;97138.63;5045811;28;20025;-74
2022/01/16 00:55:34;;;;;;;;;;;;;;;-1.73;85.16;97137.53;5057708;28;19969;-75
2022/01/16 00:57:59;;;;;;;;;;;;;;;-1.72;85.03;97134.03;5058390;28;20001;-74
2022/01/16 01:00:27;;;;;;;;;;;;;;;-1.71;85.21;97147.72;5058390;28;20000;-75
2022/01/16 01:02:54;;;;;;;;;;;;;;;-1.71;85.31;97135.66;5054915;28;19970;-75
2022/01/16 01:05:20;;;;;;;;;;;;;;;-1.69;84.75;97150.97;5041289;28;19958;-75
2022/01/16 01:07:46;;;;;;;;;;;;;;;-1.70;84.88;97145.03;5060147;28;19968;-75
2022/01/16 01:10:12;;;;;;;;;;;;;;;-1.70;84.75;97133.91;5059237;28;19982;-74
2022/01/16 01:12:52;;;;;;;;;;;;;;;-1.69;84.64;97148.41;5053631;28;20011;-74
2022/01/16 01:15:20;;;;;;;;;;;;;;;-1.70;84.48;97154.47;5046144;28;19960;-75
2022/01/16 01:17:47;;;;;;;;;;;;;;;-1.72;84.27;97136.63;5058592;28;19955;-74
2022/01/16 01:20:16;;;;;;;;;;;;;;;-1.74;83.75;97075.94;5047305;28;19965;-75
2022/01/16 01:22:42;;;;;;;;;;;;;;;-1.77;83.83;97030.75;5041951;28;19972;-74
2022/01/16 01:25:11;;;;;;;;;;;;;;;-1.81;83.48;97016.50;5059622;28;19955;-74
2022/01/16 01:27:37;;;;;;;;;;;;;;;-1.82;82.76;97025.19;5061645;28;19966;-74
2022/01/16 01:30:09;;;;;;;;;;;;;;;-1.84;82.09;97037.34;5050187;28;19956;-74
2022/01/16 01:32:39;;;;;;;;;;;;;;;-1.86;81.70;97041.78;5053503;28;20336;-74
2022/01/16 01:35:06;;;;;;;;;;;;;;;-1.91;81.40;97075.59;5049419;28;20029;-75
2022/01/16 01:37:31;;;;;;;;;;;;;;;-1.94;81.34;97086.09;5049402;28;19958;-75
2022/01/16 01:39:57;;;;;;;;;;;;;;;-1.96;81.15;97097.44;5060002;28;19991;-75
2022/01/16 01:42:30;;;;;;;;;;;;;;;-2.01;80.59;97110.69;5068312;28;20021;-75
2022/01/16 01:53:11;;;;;;;;;;;;;;;-2.19;80.24;97148.09;5055419;28;20348;-75
2022/01/16 01:55:39;;;;;;;;;;;;;;;-2.24;80.08;97135.63;5064079;28;19966;-74
2022/01/16 01:58:05;;;;;;;;;;;;;;;-2.29;80.13;97130.84;5063136;28;20424;-75
2022/01/16 02:00:31;;;;;;;;;;;;;;;-2.33;80.04;97139.75;5054907;28;20007;-75
2022/01/16 02:05:25;;;;;;;;;;;;;;;-1.67;100.00;97159.38;5058897;28;19961;-75
2022/01/16 02:07:51;;;;;;;;;;;;;;;-0.84;100.00;97161.13;5065701;28;19956;-74
2022/01/16 02:10:17;;;;;;;;;;;;;;;-0.08;100.00;97167.59;5053481;28;19966;-73
2022/01/16 02:12:45;;;;;;;;;;;;;;;0.45;100.00;97169.81;5063069;28;19968;-73
2022/01/16 02:31:58;;;;;;;;;;;;;;;-1.13;75.93;97179.00;5025815;28;19974;-73
2022/01/16 02:36:59;;;;;;;;;;;;;;;-1.71;77.22;97169.09;5054233;28;19953;-74
2022/01/16 02:39:26;;;;;;;;;;;;;;;-1.92;77.65;97171.63;5035774;28;20403;-74
2022/01/16 02:41:53;;;;;;;;;;;;;;;-2.09;78.29;97165.25;5061147;28;19963;-74
2022/01/16 02:44:29;;;;;;;;;;;;;;;-2.18;79.07;97152.28;5052440;28;20411;-74
2022/01/16 02:46:55;;;;;;;;;;;;;;;-2.26;79.47;97142.63;5043414;28;19961;-74
2022/01/16 02:49:23;;;;;;;;;;;;;;;-2.33;79.63;97142.31;5051923;28;19961;-74
2022/01/16 02:51:50;;;;;;;;;;;;;;;-2.37;79.28;97116.97;5061571;28;20325;-74
2022/01/16 02:54:16;;;;;;;;;;;;;;;-2.39;79.50;97122.22;5057351;28;19952;-74
2022/01/16 02:56:45;;;;;;;;;;;;;;;-2.41;79.17;97124.09;5047162;28;19990;-74
2022/01/16 02:59:12;;;;;;;;;;;;;;;-2.41;79.24;97123.31;5063639;28;20402;-74
2022/01/16 03:01:38;;;;;;;;;;;;;;;-2.44;78.76;97116.63;5056548;28;19966;-74
2022/01/16 03:04:04;;;;;;;;;;;;;;;-2.47;79.20;97111.75;5060179;28;19950;-75
2022/01/16 03:06:30;;;;;;;;;;;;;;;-2.48;79.56;97110.94;5052562;28;19962;-74
2022/01/16 03:08:56;;;;;;;;;;;;;;;-2.49;79.74;97118.75;5050877;28;20019;-74
2022/01/16 03:11:55;;;;;;;;;;;;;;;-2.51;79.48;97115.50;5056602;28;19962;-75
2022/01/16 03:14:18;;;;;;;;;;;;;;;-2.53;79.41;97115.59;5044248;28;20409;-75
2022/01/16 03:16:48;;;;;;;;;;;;;;;-2.57;78.63;97108.25;5044864;28;19958;-74
2022/01/16 03:22:10;;;;;;;;;;;;;;;-2.66;78.76;97108.03;5012354;28;19958;-75
2022/01/16 03:24:38;;;;;;;;;;;;;;;-2.69;78.57;97105.72;5051123;28;19951;-74
2022/01/16 03:27:06;;;;;;;;;;;;;;;-2.79;78.40;97107.34;5053861;28;19959;-74
2022/01/16 03:29:32;;;;;;;;;;;;;;;-2.88;78.92;97113.19;5045394;28;20430;-75
2022/01/16 03:31:59;;;;;;;;;;;;;;;-2.98;79.45;97102.81;5055495;28;19981;-74
2022/01/16 03:34:25;;;;;;;;;;;;;;;-3.12;80.39;97108.19;5052718;28;19951;-75
2022/01/16 03:36:51;;;;;;;;;;;;;;;-3.18;80.70;97103.50;5059292;28;19948;-74
2022/01/16 03:39:17;;;;;;;;;;;;;;;-3.20;80.89;97105.38;5051393;28;19950;-73
2022/01/16 03:41:44;;;;;;;;;;;;;;;-3.22;81.21;97102.91;5042298;28;19963;-74
2022/01/16 03:44:10;;;;;;;;;;;;;;;-3.19;81.55;97107.81;5064033;28;19951;-74
2022/01/16 03:46:38;;;;;;;;;;;;;;;-3.22;81.50;97118.31;5053646;28;19993;-74
2022/01/16 03:49:07;;;;;;;;;;;;;;;-3.26;82.04;97114.34;5055900;28;19959;-74
2022/01/16 03:51:34;;;;;;;;;;;;;;;-3.26;82.69;97110.00;5051510;28;19991;-73
2022/01/16 03:54:00;;;;;;;;;;;;;;;-3.32;81.59;97105.38;5045930;28;19955;-73
2022/01/16 03:56:26;;;;;;;;;;;;;;;-3.51;82.49;97115.34;5060012;28;19949;-74
2022/01/16 03:58:52;;;;;;;;;;;;;;;-3.56;83.55;97118.25;5063307;28;19963;-72
2022/01/16 04:01:18;;;;;;;;;;;;;;;-3.53;84.00;97117.19;5046396;28;20409;-73
2022/01/16 04:03:45;;;;;;;;;;;;;;;-3.50;83.88;97120.38;5054776;28;19949;-73
2022/01/16 04:06:11;;;;;;;;;;;;;;;-3.45;84.21;97117.44;5050645;28;19953;-73
2022/01/16 04:08:37;;;;;;;;;;;;;;;-3.40;84.21;97123.06;5059741;28;20429;-73
2022/01/16 04:11:03;;;;;;;;;;;;;;;-3.40;83.60;97111.97;5063943;28;19951;-73
2022/01/16 04:13:31;;;;;;;;;;;;;;;-3.41;84.43;97111.16;5047519;28;19975;-73
2022/01/16 04:15:57;;;;;;;;;;;;;;;-3.39;84.38;97116.19;5051873;28;19950;-73
2022/01/16 04:18:23;;;;;;;;;;;;;;;-3.37;84.33;97116.91;5056877;28;20395;-73
2022/01/16 04:20:49;;;;;;;;;;;;;;;-3.37;84.58;97117.69;5059055;28;19959;-73
2022/01/16 04:23:15;;;;;;;;;;;;;;;-3.34;84.16;97116.66;5050169;28;19956;-73
2022/01/16 04:25:41;;;;;;;;;;;;;;;-3.32;83.83;97123.31;5049340;28;19958;-74
2022/01/16 04:28:06;;;;;;;;;;;;;;;-3.29;83.59;97110.25;5057554;28;20432;-73
2022/01/16 04:30:32;;;;;;;;;;;;;;;-3.28;83.66;97105.94;5059991;28;20060;-73
2022/01/16 04:32:58;;;;;;;;;;;;;;;-3.29;83.47;97115.38;5050687;28;20013;-73
2022/01/16 04:35:24;;;;;;;;;;;;;;;-3.30;83.88;97118.06;5052921;28;19945;-73
2022/01/16 04:37:50;;;;;;;;;;;;;;;-3.30;83.34;97111.19;5055215;28;20038;-73
2022/01/16 04:40:17;;;;;;;;;;;;;;;-3.30;83.26;97120.63;5054343;28;20396;-73
2022/01/16 04:45:27;;;;;;;;;;;;;;;-3.33;83.02;97118.31;5049606;28;19955;-74
2022/01/16 04:47:53;;;;;;;;;;;;;;;-3.45;81.51;97117.44;5053782;28;19956;-74
2022/01/16 04:50:22;;;;;;;;;;;;;;;-3.64;81.99;97120.56;5042758;28;19957;-75
2022/01/16 04:52:48;;;;;;;;;;;;;;;-3.76;82.32;97118.88;5033999;28;19973;-73
2022/01/16 04:55:15;;;;;;;;;;;;;;;-3.87;82.18;97119.66;5063053;28;19959;-73
2022/01/16 04:57:41;;;;;;;;;;;;;;;-3.94;82.45;97115.94;5051843;28;19956;-74
2022/01/16 05:00:09;;;;;;;;;;;;;;;-3.95;83.15;97115.13;5045706;28;19954;-73
2022/01/16 05:02:35;;;;;;;;;;;;;;;-3.94;83.43;97109.06;5056410;28;20410;-73
2022/01/16 05:05:02;;;;;;;;;;;;;;;-3.90;83.38;97120.72;5053140;28;19954;-73
2022/01/16 05:07:27;;;;;;;;;;;;;;;-3.87;83.25;97115.34;5059132;28;19952;-73
2022/01/16 05:09:53;;;;;;;;;;;;;;;-3.84;83.09;97123.75;5068394;28;19964;-73
2022/01/16 05:12:35;;;;;;;;;;;;;;;-3.82;82.88;97127.03;5064668;28;19969;-75
2022/01/16 05:17:46;;;;;;;;;;;;;;;-3.77;82.71;97135.22;5059556;28;19966;-73
2022/01/16 05:20:12;;;;;;;;;;;;;;;-3.76;81.87;97132.53;5056020;28;19961;-73
2022/01/16 05:22:38;;;;;;;;;;;;;;;-3.75;81.94;97123.09;5059295;28;19954;-73
2022/01/16 05:25:06;;;;;;;;;;;;;;;-3.75;81.93;97123.91;5057893;28;19954;-73
2022/01/16 05:27:33;;;;;;;;;;;;;;;-3.74;82.27;97122.16;5055167;28;19961;-74
2022/01/16 05:29:59;;;;;;;;;;;;;;;-3.74;82.23;97128.13;5050723;28;20335;-73
2022/01/16 05:32:24;;;;;;;;;;;;;;;-3.76;82.33;97124.84;5053421;28;19961;-73
2022/01/16 05:34:50;;;;;;;;;;;;;;;-3.77;82.21;97127.53;5051988;28;20422;-75
2022/01/16 05:37:16;;;;;;;;;;;;;;;-3.78;81.35;97129.28;5057255;28;19962;-73
2022/01/16 05:39:44;;;;;;;;;;;;;;;-3.78;80.83;97147.22;5064564;28;20045;-73
2022/01/16 05:42:12;;;;;;;;;;;;;;;-3.76;80.83;97136.81;5063966;28;19960;-74
2022/01/16 05:44:38;;;;;;;;;;;;;;;-3.74;80.96;97140.94;5056254;28;19952;-73
2022/01/16 05:47:05;;;;;;;;;;;;;;;-3.71;81.52;97142.44;5048508;28;19950;-72
2022/01/16 05:49:31;;;;;;;;;;;;;;;-3.67;81.68;97147.25;5054786;28;19967;-73
2022/01/16 05:51:56;;;;;;;;;;;;;;;-3.63;81.42;97145.28;5058744;28;19998;-72
2022/01/16 05:54:22;;;;;;;;;;;;;;;-3.63;81.34;97139.31;5061083;28;20339;-74
2022/01/16 05:56:48;;;;;;;;;;;;;;;-3.61;81.50;97145.16;5062744;28;19960;-73
2022/01/16 05:59:14;;;;;;;;;;;;;;;-3.60;81.49;97150.16;5056011;28;20398;-73
2022/01/16 06:01:40;;;;;;;;;;;;;;;-3.62;80.42;97148.66;5056497;28;19961;-74
2022/01/16 06:04:06;;;;;;;;;;;;;;;-3.66;79.73;97148.03;5051573;28;19983;-73
2022/01/16 06:06:32;;;;;;;;;;;;;;;-3.70;79.71;97151.75;5053785;28;19960;-73
2022/01/16 06:08:58;;;;;;;;;;;;;;;-3.74;79.47;97146.06;5063997;28;20332;-73
2022/01/16 06:11:24;;;;;;;;;;;;;;;-3.76;79.46;97149.63;5052308;28;19957;-73
2022/01/16 06:13:52;;;;;;;;;;;;;;;-3.77;78.91;97159.09;5052827;28;20419;-73
2022/01/16 06:16:18;;;;;;;;;;;;;;;-3.76;79.18;97167.56;5046312;28;19954;-73
2022/01/16 06:18:44;;;;;;;;;;;;;;;-3.79;79.07;97165.25;5059273;28;20368;-73
2022/01/16 06:21:09;;;;;;;;;;;;;;;-3.78;79.17;97175.41;5038814;28;19963;-73
2022/01/16 06:23:36;;;;;;;;;;;;;;;-3.79;79.69;97172.94;5053928;28;19970;-73
2022/01/16 06:26:01;;;;;;;;;;;;;;;-3.79;79.47;97176.31;5059255;28;19952;-73
2022/01/16 06:28:29;;;;;;;;;;;;;;;-3.77;80.64;97186.47;5041851;28;19961;-73
2022/01/16 06:30:55;;;;;;;;;;;;;;;-3.77;80.63;97200.09;5051622;28;19982;-73
2022/01/16 06:33:21;;;;;;;;;;;;;;;-3.75;80.74;97190.53;5066842;28;20160;-73
2022/01/16 06:35:47;;;;;;;;;;;;;;;-3.73;81.10;97204.06;5055616;28;20042;-73
2022/01/16 06:38:13;;;;;;;;;;;;;;;-3.73;80.96;97196.38;5062407;28;19959;-73
2022/01/16 06:40:39;;;;;;;;;;;;;;;-3.72;81.04;97199.75;5052701;28;19975;-73
2022/01/16 06:43:04;;;;;;;;;;;;;;;-3.71;81.86;97197.09;5049894;28;20038;-73
2022/01/16 06:45:30;;;;;;;;;;;;;;;-3.70;81.72;97192.78;5052168;28;20011;-74
2022/01/16 06:47:56;;;;;;;;;;;;;;;-3.71;80.96;97201.41;5053326;28;20431;-74
2022/01/16 06:50:22;;;;;;;;;;;;;;;-3.72;80.41;97202.31;5060104;28;20006;-74
2022/01/16 06:52:48;;;;;;;;;;;;;;;-3.73;80.14;97205.81;5055055;28;19973;-73
2022/01/16 06:55:14;;;;;;;;;;;;;;;-3.77;80.32;97209.53;5068212;28;20049;-74
2022/01/16 06:57:40;;;;;;;;;;;;;;;-3.77;80.87;97218.03;5050694;28;20057;-73
2022/01/16 07:00:07;;;;;;;;;;;;;;;-3.76;81.10;97222.25;5053227;28;20420;-74
2022/01/16 07:02:32;;;;;;;;;;;;;;;-3.75;81.30;97218.75;5058580;28;19956;-74
2022/01/16 07:04:58;;;;;;;;;;;;;;;-3.76;81.21;97226.53;5057553;28;19958;-73
2022/01/16 07:07:24;;;;;;;;;;;;;;;-3.76;81.20;97227.38;5061113;28;20316;-74
2022/01/16 07:09:50;;;;;;;;;;;;;;;-3.73;81.19;97231.44;5051236;28;19999;-74
2022/01/16 07:12:16;;;;;;;;;;;;;;;-3.72;81.09;97236.44;5049867;28;20492;-74
2022/01/16 07:14:43;;;;;;;;;;;;;;;-3.71;81.20;97224.47;5052121;28;19968;-74
2022/01/16 07:17:09;;;;;;;;;;;;;;;-3.70;80.99;97233.78;5055848;28;19955;-73
2022/01/16 07:19:35;;;;;;;;;;;;;;;-3.71;82.03;97222.72;5056577;28;19958;-73
2022/01/16 07:22:01;;;;;;;;;;;;;;;-3.73;82.10;97231.44;5050100;28;19947;-73
2022/01/16 07:24:27;;;;;;;;;;;;;;;-3.74;81.48;97238.34;5045630;28;19957;-73
2022/01/16 07:26:54;;;;;;;;;;;;;;;-3.76;81.18;97245.31;5070700;28;19944;-73
2022/01/16 07:29:20;;;;;;;;;;;;;;;-3.78;81.54;97244.59;5056832;28;19947;-73
2022/01/16 07:31:46;;;;;;;;;;;;;;;-3.79;81.92;97245.50;5067023;28;19960;-75
2022/01/16 07:34:12;;;;;;;;;;;;;;;-3.76;81.66;97254.72;5054545;28;20407;-73
2022/01/16 07:36:38;;;;;;;;;;;;;;;-3.73;81.72;97242.50;5043283;28;19999;-74
2022/01/16 07:39:04;;;;;;;;;;;;;;;-3.71;81.33;97243.22;5045195;28;19950;-73
2022/01/16 07:41:30;;;;;;;;;;;;;;;-3.69;81.83;97249.06;5068024;28;19962;-73
2022/01/16 07:43:56;;;;;;;;;;;;;;;-3.63;81.73;97260.63;5048491;28;19965;-72
2022/01/16 07:46:23;;;;;;;;;;;;;;;-3.59;81.84;97250.97;5048912;28;20340;-73
2022/01/16 07:48:49;;;;;;;;;;;;;;;-3.54;81.72;97254.84;5056743;28;19983;-72
2022/01/16 07:51:15;;;;;;;;;;;;;;;-3.46;81.79;97246.59;5065205;28;19980;-72
2022/01/16 07:53:41;;;;;;;;;;;;;;;-3.36;82.03;97259.56;5063895;28;19964;-72
2022/01/16 07:56:07;;;;;;;;;;;;;;;-3.23;81.61;97260.34;5046489;28;19954;-72
2022/01/16 07:58:33;;;;;;;;;;;;;;;-3.04;81.73;97264.09;5044292;28;20010;-72
2022/01/16 08:00:58;;;;;;;;;;;;;;;-2.83;80.66;97269.41;5066211;28;19953;-72
2022/01/16 08:03:24;;;;;;;;;;;;;;;-2.64;80.31;97282.53;5053144;28;19988;-72
2022/01/16 08:05:50;;;;;;;;;;;;;;;-2.43;80.13;97274.13;5045170;28;20289;-72
2022/01/16 08:08:16;;;;;;;;;;;;;;;-2.23;79.34;97273.41;5046452;28;20310;-72
2022/01/16 08:10:42;;;;;;;;;;;;;;;-2.04;78.64;97280.53;5064922;28;19948;-72
2022/01/16 08:13:08;;;;;;;;;;;;;;;-1.89;78.68;97276.78;5061779;28;19974;-74
2022/01/16 08:15:34;;;;;;;;;;;;;;;-1.82;78.26;97269.41;5050591;28;20449;-74
2022/01/16 08:18:00;;;;;;;;;;;;;;;-1.91;77.70;97270.13;5052428;28;19959;-74
2022/01/16 08:20:26;;;;;;;;;;;;;;;-2.02;78.29;97268.38;5061124;28;19959;-73
2022/01/16 08:22:52;;;;;;;;;;;;;;;-2.06;78.58;97275.53;5052160;28;19959;-73
2022/01/16 08:25:19;;;;;;;;;;;;;;;-2.00;78.16;97276.78;5038397;28;19956;-74
2022/01/16 08:27:44;;;;;;;;;;;;;;;-1.84;78.99;97291.84;5056081;28;19955;-74
2022/01/16 08:30:11;;;;;;;;;;;;;;;-1.54;78.92;97290.38;5055017;28;19951;-74
2022/01/16 08:32:38;;;;;;;;;;;;;;;-1.25;78.69;97296.59;5055034;28;20297;-74
2022/01/16 08:35:05;;;;;;;;;;;;;;;-0.96;77.99;97305.50;5044825;28;19956;-74
2022/01/16 08:37:30;;;;;;;;;;;;;;;-0.74;76.77;97305.38;5052596;28;19964;-73
2022/01/16 08:39:56;;;;;;;;;;;;;;;-0.61;76.52;97302.59;5063373;28;20434;-73
2022/01/16 08:42:22;;;;;;;;;;;;;;;-0.46;76.35;97303.13;5055395;28;19962;-73
2022/01/16 08:44:49;;;;;;;;;;;;;;;-0.04;94.34;97314.16;5058517;28;20025;-74
2022/01/16 08:47:15;;;;;;;;;;;;;;;0.43;79.99;97300.72;5049440;28;19957;-74
2022/01/16 08:49:41;;;;;;;;;;;;;;;0.60;76.59;97315.56;5062911;28;19962;-74
2022/01/16 08:52:07;;;;;;;;;;;;;;;0.55;76.00;97317.72;5059838;28;19975;-74
2022/01/16 08:54:34;;;;;;;;;;;;;;;0.40;75.56;97319.06;5056318;28;20308;-74
2022/01/16 08:57:00;;;;;;;;;;;;;;;0.16;75.21;97319.38;5057186;28;19970;-74
2022/01/16 08:59:27;;;;;;;;;;;;;;;-0.07;75.86;97323.91;5076838;28;19964;-74
2022/01/16 09:01:53;;;;;;;;;;;;;;;-0.27;76.29;97334.16;5055405;28;19962;-74
2022/01/16 09:04:19;;;;;;;;;;;;;;;-0.43;76.27;97337.16;5050365;28;19964;-75
2022/01/16 09:06:45;;;;;;;;;;;;;;;-0.60;76.68;97340.31;5037875;28;20011;-74
2022/01/16 09:09:11;;;;;;;;;;;;;;;-0.77;76.46;97346.03;5070066;28;20685;-74
2022/01/16 09:11:36;;;;;;;;;;;;;;;-0.91;77.46;97347.94;5058469;28;19961;-74
2022/01/16 09:14:02;;;;;;;;;;;;;;;-0.97;78.13;97343.28;5048289;28;19970;-74
2022/01/16 09:16:30;;;;;;;;;;;;;;;-1.07;78.60;97338.09;5056365;28;19982;-74
2022/01/16 09:18:56;;;;;;;;;;;;;;;-1.09;79.63;97334.81;5058370;28;19984;-74
2022/01/16 09:21:22;;;;;;;;;;;;;;;-1.10;79.54;97346.03;5065924;28;20399;-74
2022/01/16 09:23:49;;;;;;;;;;;;;;;-1.19;79.46;97343.41;5049629;28;19955;-74
2022/01/16 09:26:15;;;;;;;;;;;;;;;-1.28;80.11;97347.50;5052594;28;19971;-74
2022/01/16 09:28:41;;;;;;;;;;;;;;;-1.28;80.33;97344.91;5053164;28;20303;-74
2022/01/16 09:31:07;;;;;;;;;;;;;;;-1.15;80.61;97350.75;5068543;28;19962;-74
2022/01/16 09:33:34;;;;;;;;;;;;;;;-0.90;81.25;97357.31;5055070;28;20319;-74
2022/01/16 09:36:01;;;;;;;;;;;;;;;-0.49;80.87;97360.06;5054571;28;20411;-74
2022/01/16 09:38:27;;;;;;;;;;;;;;;-0.06;80.21;97366.81;5057263;28;20421;-75
2022/01/16 09:40:54;;;;;;;;;;;;;;;0.34;79.77;97366.84;5065181;28;19955;-73
2022/01/16 09:43:20;;;;;;;;;;;;;;;0.70;78.33;97362.03;5049955;28;19956;-72
2022/01/16 09:45:46;;;;;;;;;;;;;;;1.01;77.45;97372.28;5054023;28;19957;-72
2022/01/16 09:48:12;;;;;;;;;;;;;;;1.20;75.08;97359.38;5065711;28;19987;-71
2022/01/16 09:50:38;;;;;;;;;;;;;;;1.33;73.83;97360.88;5052530;28;20404;-73
2022/01/16 09:53:04;;;;;;;;;;;;;;;1.34;73.65;97367.66;5045259;28;20021;-73
2022/01/16 09:55:30;;;;;;;;;;;;;;;1.37;75.29;97367.41;5055700;28;20396;-73
2022/01/16 09:57:57;;;;;;;;;;;;;;;1.47;74.39;97377.72;5067946;28;19963;-73
2022/01/16 10:00:24;;;;;;;;;;;;;;;1.53;73.41;97383.13;5058100;28;19959;-73
2022/01/16 10:02:50;;;;;;;;;;;;;;;1.54;73.84;97387.38;5048192;28;20335;-73
2022/01/16 10:05:24;;;;;;;;;;;;;;;1.58;73.63;97387.91;5059850;28;20401;-73
2022/01/16 10:07:50;;;;;;;;;;;;;;;1.68;73.76;97383.56;5058666;28;20427;-73
2022/01/16 10:10:16;;;;;;;;;;;;;;;1.72;74.13;97389.25;5058931;28;19964;-73
2022/01/16 10:12:51;;;;;;;;;;;;;;;1.85;74.57;97386.34;5051062;28;19952;-73
2022/01/16 10:15:24;;;;;;;;;;;;;;;1.90;72.30;97385.00;5045070;28;19965;-75
2022/01/16 10:17:54;;;;;;;;;;;;;;;2.00;72.12;97379.81;5058900;28;19963;-73
2022/01/16 10:20:20;;;;;;;;;;;;;;;2.16;73.88;97385.22;5054128;28;20349;-74
2022/01/16 10:22:50;;;;;;;;;;;;;;;2.39;72.88;97377.06;5065877;28;20404;-75
2022/01/16 10:25:33;;;;;;;;;;;;;;;2.51;72.32;97375.09;5053737;28;19954;-74
2022/01/16 10:28:01;;;;;;;;;;;;;;;2.64;72.32;97378.16;5043617;28;19965;-74
2022/01/16 10:30:37;;;;;;;;;;;;;;;2.75;72.39;97371.97;5054653;28;20281;-74
2022/01/16 10:33:08;;;;;;;;;;;;;;;2.91;72.02;97369.56;5061158;28;19953;-74
2022/01/16 10:35:38;;;;;;;;;;;;;;;3.02;71.48;97361.59;5056493;28;19957;-74
2022/01/16 10:38:10;;;;;;;;;;;;;;;3.05;70.38;97361.28;5054555;28;19962;-74
2022/01/16 10:40:37;;;;;;;;;;;;;;;3.19;71.28;97364.31;5053592;28;19956;-74
2022/01/16 10:43:13;;;;;;;;;;;;;;;3.22;70.47;97362.22;5046274;28;19959;-75
2022/01/16 10:45:43;;;;;;;;;;;;;;;3.19;70.09;97370.31;5063231;28;20326;-74
2022/01/16 10:48:10;;;;;;;;;;;;;;;3.17;69.93;97367.06;5056866;28;20333;-76
2022/01/16 10:50:38;;;;;;;;;;;;;;;3.16;71.30;97369.78;5054461;28;20344;-75
2022/01/16 10:53:05;;;;;;;;;;;;;;;3.24;71.66;97373.28;5030123;28;19961;-74
2022/01/16 10:55:40;;;;;;;;;;;;;;;3.35;71.14;97374.81;5059208;28;19981;-75
2022/01/16 10:58:09;;;;;;;;;;;;;;;3.45;71.25;97375.56;5044146;28;19954;-75
2022/01/16 11:00:36;;;;;;;;;;;;;;;3.50;70.36;97369.09;5044509;28;20336;-75
2022/01/16 11:03:03;;;;;;;;;;;;;;;3.71;82.54;97384.34;5067992;28;19985;-75
2022/01/16 11:05:33;;;;;;;;;;;;;;;4.49;86.84;97386.88;5052172;28;19964;-75
2022/01/16 11:08:00;;;;;;;;;;;;;;;5.38;78.68;97382.88;5023671;28;19950;-75
2022/01/16 11:10:31;;;;;;;;;;;;;;;5.73;68.63;97354.91;5059116;28;19948;-75
2022/01/16 11:12:58;;;;;;;;;;;;;;;5.77;66.39;97355.38;5060531;28;19959;-75
2022/01/16 11:15:25;;;;;;;;;;;;;;;5.76;63.77;97338.16;5059743;28;19965;-75
2022/01/16 11:17:52;;;;;;;;;;;;;;;5.49;66.45;97364.34;5055347;28;19972;-75
2022/01/16 11:20:22;;;;;;;;;;;;;;;5.22;63.64;97349.88;5047813;28;20332;-75
2022/01/16 11:23:04;;;;;;;;;;;;;;;4.83;66.84;97373.88;5046268;28;20345;-75
2022/01/16 11:25:36;;;;;;;;;;;;;;;4.55;67.44;97378.47;5059138;28;19962;-75
2022/01/16 11:28:06;;;;;;;;;;;;;;;4.36;67.65;97373.53;5065146;28;20422;-78
2022/01/16 11:30:33;;;;;;;;;;;;;;;4.17;68.94;97384.94;5035284;28;19955;-75
2022/01/16 11:33:00;;;;;;;;;;;;;;;4.00;68.53;97376.25;5060176;28;19976;-75
2022/01/16 11:35:27;;;;;;;;;;;;;;;3.74;69.84;97386.63;5057747;28;19988;-75
2022/01/16 11:37:53;;;;;;;;;;;;;;;3.65;70.56;97388.34;5053330;28;19967;-75
2022/01/16 11:40:28;;;;;;;;;;;;;;;3.62;71.14;97386.88;5028114;28;19960;-75
2022/01/16 11:43:12;;;;;;;;;;;;;;;3.75;70.43;97380.47;5058060;28;20450;-76
2022/01/16 11:46:14;;;;;;;;;;;;;;;3.78;71.22;97390.53;5034904;28;19963;-75
2022/01/16 11:48:41;;;;;;;;;;;;;;;3.73;71.75;97375.44;5012393;28;20120;-76
2022/01/16 11:51:27;;;;;;;;;;;;;;;3.74;70.55;97371.03;5056284;28;19976;-75
2022/01/16 11:54:06;;;;;;;;;;;;;;;3.90;72.05;97367.75;5047291;28;19973;-75
2022/01/16 11:56:41;;;;;;;;;;;;;;;4.21;71.53;97368.09;5049307;28;20029;-75
2022/01/16 11:59:10;;;;;;;;;;;;;;;4.38;69.32;97372.38;5059822;28;19951;-75
2022/01/16 12:01:48;;;;;;;;;;;;;;;4.52;69.88;97376.19;5036369;28;19960;-75
2022/01/16 12:04:29;;;;;;;;;;;;;;;4.61;67.51;97377.84;5073054;28;19954;-75
2022/01/16 12:06:58;;;;;;;;;;;;;;;4.75;67.71;97391.22;5054374;28;20318;-76
2022/01/16 12:09:47;;;;;;;;;;;;;;;4.86;67.98;97402.13;5046039;28;20442;-76
2022/01/16 12:12:13;;;;;;;;;;;;;;;4.94;69.39;97401.34;5034383;28;20441;-76
2022/01/16 12:14:48;;;;;;;;;;;;;;;4.97;66.45;97384.59;5034441;28;19966;-76
2022/01/16 12:17:26;;;;;;;;;;;;;;;4.89;66.49;97385.38;5047560;28;20337;-76
2022/01/16 12:19:53;;;;;;;;;;;;;;;4.81;68.38;97394.00;5049245;28;19969;-76
2022/01/16 12:22:38;;;;;;;;;;;;;;;4.73;67.09;97385.38;5066865;28;19960;-76
2022/01/16 12:25:07;;;;;;;;;;;;;;;4.70;67.55;97399.47;5047317;28;19960;-81
2022/01/16 12:27:36;;;;;;;;;;;;;;;4.68;66.31;97399.66;5050863;28;19960;-76
2022/01/16 12:30:14;;;;;;;;;;;;;;;4.61;69.07;97406.41;5052385;28;19953;-77
2022/01/16 12:32:50;;;;;;;;;;;;;;;4.41;69.82;97413.66;5047170;28;19969;-76
2022/01/16 12:35:35;;;;;;;;;;;;;;;4.13;69.95;97400.00;5047308;28;19973;-76
2022/01/16 12:38:05;;;;;;;;;;;;;;;3.87;70.81;97400.03;5073497;28;19956;-76
2022/01/16 12:40:31;;;;;;;;;;;;;;;3.72;71.48;97411.91;5042997;28;19968;-76
2022/01/16 12:42:57;;;;;;;;;;;;;;;3.62;71.52;97412.00;5034651;28;19954;-76
2022/01/16 12:45:23;;;;;;;;;;;;;;;3.53;72.34;97416.31;5052439;28;19964;-76
2022/01/16 12:47:49;;;;;;;;;;;;;;;3.48;72.74;97431.47;5033708;28;19961;-76
2022/01/16 12:50:14;;;;;;;;;;;;;;;3.45;72.99;97434.38;5063721;28;19960;-76
2022/01/16 12:52:47;;;;;;;;;;;;;;;3.36;73.18;97448.22;5071806;28;19990;-76
2022/01/16 12:55:13;;;;;;;;;;;;;;;3.22;72.67;97452.97;5062265;28;19984;-76
2022/01/16 12:57:41;;;;;;;;;;;;;;;3.08;72.87;97452.66;5068738;28;20256;-76
2022/01/16 13:00:10;;;;;;;;;;;;;;;2.88;73.39;97450.16;5073613;28;20009;-76
2022/01/16 13:02:37;;;;;;;;;;;;;;;2.78;73.98;97463.16;5016223;28;19974;-76
2022/01/16 13:05:04;;;;;;;;;;;;;;;2.71;73.56;97469.88;5033808;28;19957;-76
2022/01/16 13:07:30;;;;;;;;;;;;;;;2.67;73.58;97478.06;5071300;28;19960;-76
2022/01/16 13:09:56;;;;;;;;;;;;;;;2.61;73.61;97487.22;5073120;28;19958;-76
2022/01/16 13:12:22;;;;;;;;;;;;;;;2.58;73.69;97487.50;5036409;28;19957;-76
2022/01/16 13:14:49;;;;;;;;;;;;;;;2.55;73.71;97495.56;5060064;28;20337;-75
2022/01/16 13:17:15;;;;;;;;;;;;;;;2.53;73.92;97490.53;5054222;28;19961;-75
2022/01/16 13:19:52;;;;;;;;;;;;;;;2.54;74.27;97496.50;5073072;28;19970;-75
2022/01/16 13:22:23;;;;;;;;;;;;;;;2.57;73.95;97498.84;5068299;28;19975;-75
2022/01/16 13:24:55;;;;;;;;;;;;;;;2.53;73.27;97493.09;5037311;28;19958;-75
2022/01/16 13:27:30;;;;;;;;;;;;;;;2.50;72.73;97492.56;5068342;28;19960;-75
2022/01/16 13:29:57;;;;;;;;;;;;;;;2.49;73.47;97498.72;5037687;28;19969;-75
2022/01/16 13:32:29;;;;;;;;;;;;;;;2.46;73.15;97499.81;5046236;28;20363;-75
2022/01/16 13:34:55;;;;;;;;;;;;;;;2.49;73.60;97494.34;5060147;28;19979;-75